^^
Grace C. Lehan Memorial Weather Station Historical Data
Daily Summary for December 26, 2021 Units:  Metric    English   Both
Daily Weekly Monthly Yearly
  High: Low: Average:
Temperature: 8.2 °C 1.8 °C 4.2 °C
Dew Point: 3.7 °C -2.8 °C 0.3 °C
Humidity: 96% 55% 77%
Wind Speed: 22km/h 0km/h 4.5km/h
Wind Gust: 41.8km/h - -
Wind- - WNW
Pressure: 1015.8 hPa 1000.9 hPa -
Precipitation: 1.02 mm    
 
 
Tabular Data for December 26, 2021
Time Temperature Dew Point Pressure Wind Wind Speed Wind Gust Humidity Rainfall Rate (Hourly) solar
00:04 1.8 °C 1.1 °C 1000.9 hPa Calm     95% 0 mm 0 W/m2
00:09 1.8 °C 1.1 °C 1000.9 hPa Calm     95% 0 mm 0 W/m2
00:14 1.8 °C 1.1 °C 1001.2 hPa NE 1 km/h 4.8 km/h 95% 0 mm 0 W/m2
00:19 1.9 °C 1.2 °C 1001.2 hPa Calm   4.8 km/h 95% 0 mm 0 W/m2
00:24 1.9 °C 1.2 °C 1001.2 hPa NE 0.3 km/h 4.8 km/h 95% 0 mm 0 W/m2
00:29 1.9 °C 1.2 °C 1001.2 hPa Calm   4.8 km/h 95% 0 mm 0 W/m2
00:34 1.9 °C 1.2 °C 1001.2 hPa Calm   4.8 km/h 95% 0 mm 0 W/m2
00:39 2 °C 1.3 °C 1001.2 hPa Calm     95% 0 mm 0 W/m2
00:44 2 °C 1.3 °C 1001.2 hPa Calm     95% 0 mm 0 W/m2
00:49 2 °C 1.3 °C 1001.2 hPa Calm     95% 0 mm 0 W/m2
00:54 2.1 °C 1.3 °C 1001.2 hPa NE 0.5 km/h 6.4 km/h 95% 0 mm 0 W/m2
00:59 2.1 °C 1.3 °C 1001.6 hPa Calm   6.4 km/h 95% 0 mm 0 W/m2
01:04 2.1 °C 1.3 °C 1001.6 hPa NE 0.2 km/h 6.4 km/h 95% 0 mm 0 W/m2
01:09 2.1 °C 1.3 °C 1001.6 hPa Calm   3.2 km/h 95% 0 mm 0 W/m2
01:14 2.1 °C 1.4 °C 1001.9 hPa Calm   3.2 km/h 95.2% 0 mm 0 W/m2
01:19 2.1 °C 1.5 °C 1001.9 hPa NE 0.2 km/h 3.2 km/h 95.7% 0 mm 0 W/m2
01:24 2.1 °C 1.6 °C 1001.9 hPa Calm   3.2 km/h 96% 0 mm 0 W/m2
01:29 2.1 °C 1.6 °C 1001.9 hPa Calm   3.2 km/h 96% 0 mm 0 W/m2
01:34 2.1 °C 1.6 °C 1001.9 hPa Calm   3.2 km/h 96% 0 mm 0 W/m2
01:39 2.1 °C 1.6 °C 1002.3 hPa Calm     96% 0 mm 0 W/m2
01:44 2.1 °C 1.6 °C 1002.3 hPa Calm     96% 0 mm 0 W/m2
01:49 2.1 °C 1.6 °C 1002.6 hPa Calm     96% 0 mm 0 W/m2
01:54 2.1 °C 1.4 °C 1002.6 hPa Calm     95.2% 0 mm 0 W/m2
01:59 2.2 °C 1.5 °C 1002.6 hPa Calm     95.3% 0 mm 0 W/m2
02:04 2.2 °C 1.4 °C 1002.6 hPa Calm     95.1% 0 mm 0 W/m2
02:09 2.2 °C 1.4 °C 1002.6 hPa Calm     95% 0 mm 0 W/m2
02:14 2.2 °C 1.4 °C 1002.6 hPa Calm     95% 0 mm 0 W/m2
02:19 2.2 °C 1.4 °C 1002.6 hPa Calm     95% 0 mm 0 W/m2
02:24 2.2 °C 1.4 °C 1002.9 hPa Calm     95% 0 mm 0 W/m2
02:29 2.2 °C 1.4 °C 1002.6 hPa Calm     95% 0 mm 0 W/m2
02:34 2.2 °C 1.4 °C 1002.6 hPa Calm     95% 0 mm 0 W/m2
02:39 2.2 °C 1.4 °C 1002.6 hPa Calm     95% 0 mm 0 W/m2
02:44 2.2 °C 1.4 °C 1002.9 hPa Calm     95% 0 mm 0 W/m2
02:49 2.2 °C 1.4 °C 1002.9 hPa Calm     95% 0 mm 0 W/m2
02:54 2.2 °C 1.4 °C 1003.3 hPa Calm     95% 0 mm 0 W/m2
02:59 2.2 °C 1.4 °C 1003.3 hPa Calm     95% 0 mm 0 W/m2
03:04 2.2 °C 1.4 °C 1003.3 hPa Calm     95% 0 mm 0 W/m2
03:09 2.2 °C 1.4 °C 1003.6 hPa Calm     95% 0 mm 0 W/m2
03:14 2.2 °C 1.6 °C 1003.6 hPa Calm     95.9% 0 mm 0 W/m2
03:19 2.2 °C 1.7 °C 1003.3 hPa Calm     96% 0 mm 0 W/m2
03:24 2.3 °C 1.7 °C 1003.3 hPa Calm     96% 0 mm 0 W/m2
03:29 2.3 °C 1.8 °C 1003.6 hPa NE 0.2 km/h 1.6 km/h 96% 0 mm 0 W/m2
03:34 2.4 °C 1.8 °C 1003.6 hPa Calm   1.6 km/h 96% 0 mm 0 W/m2
03:39 2.4 °C 1.9 °C 1003.6 hPa Calm     96% 0 mm 0 W/m2
03:44 2.4 °C 1.9 °C 1003.6 hPa NE 0.5 km/h 9.7 km/h 96% 0 mm 0 W/m2
03:49 2.6 °C 1.9 °C 1003.6 hPa NE 0.2 km/h 9.7 km/h 96% 0 mm 0 W/m2
03:54 2.6 °C 2 °C 1003.9 hPa Calm   9.7 km/h 96% 0 mm 0 W/m2
03:59 2.7 °C 2.1 °C 1003.9 hPa Calm   9.7 km/h 96% 0 mm 0 W/m2
04:00 2.7 °C 2.1 °C 1003.9 hPa Calm   9.7 km/h 96% 0 mm 0 W/m2
04:09 2.8 °C 2.2 °C 1003.9 hPa Calm     96% 0 mm 0 W/m2
04:14 2.8 °C 2.2 °C 1003.6 hPa Calm     96% 0 mm 0 W/m2
04:19 2.9 °C 2.3 °C 1003.9 hPa Calm     96% 0 mm 0 W/m2
04:24 2.9 °C 2.3 °C 1003.9 hPa Calm     96% 0 mm 0 W/m2
04:29 2.9 °C 2.4 °C 1003.9 hPa Calm     96% 0 mm 0 W/m2
04:34 3 °C 2.4 °C 1004.3 hPa Calm     96% 0 mm 0 W/m2
04:39 3.1 °C 2.4 °C 1004.3 hPa Calm     96% 0 mm 0 W/m2
04:44 3.1 °C 2.5 °C 1004.3 hPa Calm     96% 0 mm 0 W/m2
04:49 3.1 °C 2.5 °C 1004.3 hPa Calm     96% 0 mm 0 W/m2
04:54 3.1 °C 2.5 °C 1003.9 hPa Calm   3.2 km/h 96% 0 mm 0 W/m2
04:59 3.1 °C 2.5 °C 1003.9 hPa Calm   3.2 km/h 96% 0 mm 0 W/m2
05:04 3.1 °C 2.5 °C 1003.9 hPa Calm   3.2 km/h 96% 0 mm 0 W/m2
05:09 3 °C 2.4 °C 1003.9 hPa Calm     96% 0 mm 0 W/m2
05:14 3 °C 2.4 °C 1004.3 hPa NE 0.2 km/h 1.6 km/h 96% 0 mm 0 W/m2
05:19 3 °C 2.4 °C 1004.3 hPa NE 0.3 km/h 3.2 km/h 96% 0 mm 0 W/m2
05:24 2.9 °C 2.4 °C 1003.9 hPa NE 0.2 km/h 4.8 km/h 96% 0 mm 0 W/m2
05:29 2.9 °C 2.4 °C 1004.3 hPa Calm   4.8 km/h 96% 0 mm 0 W/m2
05:34 2.9 °C 2.4 °C 1004.3 hPa Calm   4.8 km/h 96% 0 mm 0 W/m2
05:39 2.9 °C 2.4 °C 1004.3 hPa Calm     96% 0 mm 0 W/m2
05:44 3 °C 2.4 °C 1004.6 hPa Calm     96% 0 mm 0 W/m2
05:49 2.9 °C 2.4 °C 1005 hPa Calm     96% 0 mm 0 W/m2
05:54 2.9 °C 2.4 °C 1005.3 hPa NE 0.3 km/h 3.2 km/h 96% 0 mm 0 W/m2
05:59 2.9 °C 2.4 °C 1005.3 hPa NE 0.3 km/h 3.2 km/h 96% 0 mm 0 W/m2
06:04 2.9 °C 2.4 °C 1005.6 hPa NE 1.8 km/h 6.4 km/h 96% 0 mm 0 W/m2
06:09 2.9 °C 2.4 °C 1005.6 hPa NNW 1.6 km/h 11.3 km/h 96% 0 mm 0 W/m2
06:14 2.9 °C 2.4 °C 1006 hPa WNW 1.4 km/h 11.3 km/h 96% 0 mm 0 W/m2
06:19 2.9 °C 2.4 °C 1006.3 hPa NW 5.3 km/h 16.1 km/h 96% 0 mm 0 W/m2
06:24 3 °C 2.4 °C 1006.7 hPa NW 3.9 km/h 16.1 km/h 96% 0 mm 0 W/m2
06:29 3.2 °C 2.6 °C 1006.7 hPa NW 5 km/h 17.7 km/h 96% 0 mm 0 W/m2
06:34 3.3 °C 2.7 °C 1007 hPa NNW 3.1 km/h 19.3 km/h 96% 0 mm 0 W/m2
06:39 3.3 °C 2.8 °C 1007.3 hPa WNW 7.6 km/h 19.3 km/h 96% 0 mm 0 W/m2
06:44 3.4 °C 2.9 °C 1007.3 hPa WNW 6.4 km/h 20.9 km/h 96% 0 mm 0 W/m2
06:49 3.6 °C 2.9 °C 1007.7 hPa WNW 10.3 km/h 29 km/h 96% 0 mm 0 W/m2
06:54 3.7 °C 2.9 °C 1007.7 hPa WNW 8 km/h 29 km/h 95% 0 mm 0 W/m2
06:59 3.7 °C 3 °C 1008 hPa WNW 8.7 km/h 29 km/h 95% 0 mm 0 W/m2
07:04 3.8 °C 3.1 °C 1008 hPa NW 6 km/h 29 km/h 94.9% 0 mm 0 W/m2
07:09 3.9 °C 3.1 °C 1008 hPa NW 6 km/h 19.3 km/h 94% 0 mm 0 W/m2
07:14 4 °C 3 °C 1007.7 hPa NW 6.1 km/h 24.1 km/h 93.2% 0 mm 0 W/m2
07:19 4.1 °C 2.9 °C 1007.7 hPa NW 6.1 km/h 24.1 km/h 92.4% 0 mm 5 W/m2
07:24 4.1 °C 2.8 °C 1007.7 hPa NW 2.9 km/h 24.1 km/h 91.8% 0 mm 18 W/m2
07:29 4.1 °C 2.8 °C 1007.7 hPa NNW 3.7 km/h 24.1 km/h 91.2% 0 mm 18 W/m2
07:34 4.1 °C 2.7 °C 1008 hPa NNW 4.8 km/h 24.1 km/h 91% 0 mm 23 W/m2
07:39 4.1 °C 2.7 °C 1008 hPa NW 2.1 km/h 14.5 km/h 90.6% 0 mm 26 W/m2
07:44 4.1 °C 2.6 °C 1007.7 hPa Calm   14.5 km/h 90% 0 mm 42 W/m2
07:49 4.1 °C 2.6 °C 1008 hPa NW 1.4 km/h 14.5 km/h 90% 0.25 mm 54 W/m2
07:54 4.3 °C 2.9 °C 1008 hPa Calm   14.5 km/h 91% 0.25 mm 83 W/m2
07:59 4.6 °C 3.2 °C 1008 hPa NW 2.3 km/h 14.5 km/h 90.3% 0.25 mm 83 W/m2
08:00 4.7 °C 3.2 °C 1008 hPa Calm   14.5 km/h 90% 0.25 mm 83 W/m2
08:09 5.2 °C 3.4 °C 1008 hPa NNW 1.9 km/h 8 km/h 88.4% 0.25 mm 130 W/m2
08:14 5.4 °C 3.7 °C 1008.4 hPa NNW 3.4 km/h 9.7 km/h 88.5% 0.51 mm 149 W/m2
08:19 5.6 °C 3.3 °C 1008.4 hPa NW 5 km/h 14.5 km/h 85.1% 0.51 mm 149 W/m2
08:24 5.8 °C 3.2 °C 1008.4 hPa WNW 5 km/h 16.1 km/h 83.4% 0.51 mm 165 W/m2
08:29 5.9 °C 3.1 °C 1008.4 hPa NW 4.3 km/h 16.1 km/h 82% 0.51 mm 197 W/m2
08:34 6.1 °C 3.1 °C 1008.7 hPa NW 3.1 km/h 16.1 km/h 81.2% 0.51 mm 185 W/m2
08:39 6.2 °C 3.1 °C 1008.7 hPa NW 3.4 km/h 16.1 km/h 80.2% 0.76 mm 171 W/m2
08:44 6.3 °C 3 °C 1008.7 hPa NNW 1.3 km/h 16.1 km/h 79.6% 0.76 mm 186 W/m2
08:49 6.3 °C 2.9 °C 1009 hPa NNW 2.7 km/h 16.1 km/h 79% 0.76 mm 220 W/m2
08:54 6.3 °C 2.9 °C 1009 hPa NNW 3.1 km/h 16.1 km/h 79% 0.76 mm 229 W/m2
08:59 6.4 °C 2.8 °C 1009 hPa NW 2.1 km/h 16.1 km/h 78% 0.76 mm 258 W/m2
09:04 6.5 °C 2.9 °C 1009 hPa NW 1 km/h 16.1 km/h 77.9% 0.76 mm 278 W/m2
09:09 6.7 °C 2.9 °C 1009 hPa NW 3.7 km/h 9.7 km/h 76.7% 0.51 mm 193 W/m2
09:14 6.7 °C 2.6 °C 1009.4 hPa NW 3.9 km/h 11.3 km/h 75.1% 0.76 mm 165 W/m2
09:19 6.6 °C 2.4 °C 1009.4 hPa WNW 3.4 km/h 11.3 km/h 75.2% 0.76 mm 211 W/m2
09:24 6.4 °C 2.4 °C 1009.4 hPa NW 6.4 km/h 17.7 km/h 75.4% 0.76 mm 155 W/m2
09:29 6.3 °C 2.2 °C 1009.4 hPa WNW 9.3 km/h 20.9 km/h 75% 0.76 mm 155 W/m2
09:34 6.1 °C 1.9 °C 1009.4 hPa WNW 15.9 km/h 35.4 km/h 74.3% 0.76 mm 130 W/m2
09:39 5.8 °C 1.6 °C 1009.4 hPa WNW 17.2 km/h 35.4 km/h 74% 0.51 mm 121 W/m2
09:44 5.6 °C 1.1 °C 1009.7 hPa WNW 19.3 km/h 35.4 km/h 73.2% 0.51 mm 142 W/m2
09:49 5.4 °C 1.1 °C 1009.7 hPa WNW 16.1 km/h 35.4 km/h 73.4% 0.51 mm 118 W/m2
09:54 5.3 °C 1.1 °C 1010 hPa WNW 12.2 km/h 35.4 km/h 74% 0.51 mm 120 W/m2
09:59 5.3 °C 1.2 °C 1009.7 hPa NW 2.3 km/h 35.4 km/h 74.4% 0.51 mm 125 W/m2
10:04 5.4 °C 1.2 °C 1009.7 hPa WNW 6 km/h 35.4 km/h 74.1% 0.51 mm 139 W/m2
10:09 5.5 °C 1.1 °C 1009.7 hPa NW 9.2 km/h 24.1 km/h 73.4% 0.25 mm 178 W/m2
10:14 5.7 °C 1.2 °C 1009.7 hPa NW 8.2 km/h 24.1 km/h 73% 0.25 mm 279 W/m2
10:19 5.9 °C 1.2 °C 1009.7 hPa NW 8.5 km/h 27.4 km/h 72.1% 0.25 mm 338 W/m2
10:24 6.2 °C 1.6 °C 1009.7 hPa NW 4.7 km/h 27.4 km/h 72% 0.25 mm 399 W/m2
10:29 6.7 °C 1.9 °C 1009.7 hPa NW 6.9 km/h 27.4 km/h 71.5% 0.25 mm 415 W/m2
10:34 7.1 °C 1.7 °C 1010 hPa NW 10.9 km/h 27.4 km/h 68.6% 0.25 mm 420 W/m2
10:39 7.2 °C 1.6 °C 1010 hPa WNW 4.5 km/h 22.5 km/h 67.3% 0 mm 411 W/m2
10:44 7.4 °C 1.8 °C 1010 hPa NW 5 km/h 22.5 km/h 67.7% 0 mm 322 W/m2
10:49 7.6 °C 1.7 °C 1010 hPa WNW 6.1 km/h 22.5 km/h 65.9% 0 mm 322 W/m2
10:54 7.6 °C 1.3 °C 1010.4 hPa NW 11.7 km/h 29 km/h 64.2% 0 mm 260 W/m2
10:59 7.6 °C 1.3 °C 1010 hPa NNW 4.8 km/h 29 km/h 64.5% 0 mm 165 W/m2
11:04 7.6 °C 1.4 °C 1010.4 hPa NW 10.1 km/h 29 km/h 64.9% 0 mm 118 W/m2
11:09 7.5 °C 1 °C 1010.4 hPa WNW 9.2 km/h 29 km/h 63.4% 0 mm 155 W/m2
11:14 7.4 °C 0.9 °C 1010.7 hPa WNW 9.7 km/h 29 km/h 63.3% 0 mm 105 W/m2
11:19 7.4 °C 0.8 °C 1010.7 hPa WNW 15.8 km/h 37 km/h 62.8% 0 mm 134 W/m2
11:24 7.4 °C 0.8 °C 1010.7 hPa WNW 7.9 km/h 37 km/h 63.1% 0 mm 105 W/m2
11:29 7.4 °C 0.9 °C 1010.7 hPa NW 12.2 km/h 37 km/h 63.3% 0 mm 199 W/m2
11:34 7.4 °C 0.7 °C 1010.7 hPa WNW 11.9 km/h 37 km/h 62.4% 0 mm 197 W/m2
11:39 7.4 °C 0.7 °C 1010.4 hPa NW 14.3 km/h 30.6 km/h 62.1% 0 mm 281 W/m2
11:44 7.4 °C 0.4 °C 1010.4 hPa NW 12.9 km/h 30.6 km/h 61% 0 mm 359 W/m2
11:49 7.3 °C 0.1 °C 1010.4 hPa NW 16.7 km/h 30.6 km/h 60.2% 0 mm 146 W/m2
11:54 7.2 °C 0.1 °C 1010.4 hPa NW 12.6 km/h 30.6 km/h 60.5% 0 mm 125 W/m2
11:59 7.2 °C -0.1 °C 1010.4 hPa NW 16.3 km/h 33.8 km/h 60.1% 0 mm 473 W/m2
12:00 7.1 °C 0.1 °C 1010 hPa NW 22 km/h 33.8 km/h 61% 0 mm 473 W/m2
12:09 7.2 °C -0.1 °C 1010 hPa WNW 15 km/h 29 km/h 59.5% 0 mm 123 W/m2
12:14 7.3 °C -0.2 °C 1010 hPa WNW 10.3 km/h 29 km/h 59% 0 mm 482 W/m2
12:19 7.4 °C 0 °C 1010 hPa NW 11.3 km/h 32.2 km/h 59.3% 0 mm 473 W/m2
12:24 7.5 °C -0.2 °C 1010 hPa NW 10.6 km/h 33.8 km/h 58.1% 0 mm 244 W/m2
12:29 7.5 °C -0.3 °C 1010 hPa NW 15.1 km/h 35.4 km/h 57.8% 0 mm 49 W/m2
12:34 7.4 °C -0.6 °C 1010 hPa NW 11.7 km/h 35.4 km/h 57% 0 mm 178 W/m2
12:39 7.4 °C -0.3 °C 1009.7 hPa NW 7.9 km/h 27.4 km/h 58.2% 0 mm 338 W/m2
12:44 7.7 °C 0.1 °C 1009.7 hPa NW 13 km/h 33.8 km/h 58.6% 0 mm 459 W/m2
12:49 7.9 °C -0.2 °C 1009.7 hPa NNW 7.7 km/h 33.8 km/h 56.7% 0 mm 454 W/m2
12:54 8.1 °C 0 °C 1009.7 hPa NW 8.4 km/h 33.8 km/h 56.6% 0 mm 306 W/m2
12:59 8.1 °C -0.2 °C 1009.7 hPa NW 9 km/h 33.8 km/h 55.7% 0 mm 237 W/m2
13:04 8 °C -0.2 °C 1009.7 hPa NW 4.5 km/h 33.8 km/h 56.2% 0 mm 69 W/m2
13:09 8 °C -0.2 °C 1009.7 hPa NW 4.5 km/h 14.5 km/h 56% 0 mm 418 W/m2
13:14 8.1 °C -0.1 °C 1009.7 hPa NW 9.2 km/h 22.5 km/h 56% 0 mm 362 W/m2
13:15 8.2 °C -0.1 °C 1009.7 hPa NW 6.9 km/h 22.5 km/h 55.6% 0 mm 162 W/m2
13:30 7.9 °C -0.6 °C 1009.7 hPa NW 9.7 km/h 37 km/h 55% 0 mm 206 W/m2
14:00 7.5 °C -0.9 °C 1010 hPa NW 12.9 km/h 37 km/h 55% 0 mm 113 W/m2
14:30 7.4 °C -0.8 °C 1010.4 hPa NW 11.3 km/h 29 km/h 56% 0 mm 165 W/m2
15:00 7.2 °C -1 °C 1011.1 hPa NW 12.9 km/h 32.2 km/h 56% 0 mm 89 W/m2
15:30 5.9 °C -1.7 °C 1011.4 hPa NW 12.9 km/h 41.8 km/h 58% 0 mm 47 W/m2
16:04 5.4 °C -1.6 °C 1012.1 hPa NW 11.4 km/h 41.8 km/h 60.8% 0 mm 47 W/m2
16:08 5.3 °C -1.6 °C 1012.1 hPa WNW 13.8 km/h 29 km/h 61% 0 mm 19 W/m2
16:14 5.3 °C -1.6 °C 1012.1 hPa NW 8.2 km/h 35.4 km/h 61% 0 mm 14 W/m2
16:19 5.2 °C -1.8 °C 1012.4 hPa NW 8.4 km/h 35.4 km/h 60.5% 0 mm 9 W/m2
16:24 5.2 °C -1.7 °C 1012.4 hPa NW 5.6 km/h 35.4 km/h 61% 0 mm 5 W/m2
16:29 5.1 °C -1.8 °C 1012.4 hPa NW 6.3 km/h 35.4 km/h 61% 0 mm 0 W/m2
16:34 5.1 °C -1.8 °C 1012.4 hPa NW 14.2 km/h 35.4 km/h 61% 0 mm 0 W/m2
16:39 5 °C -1.9 °C 1012.4 hPa WNW 14 km/h 30.6 km/h 61.1% 0 mm 0 W/m2
16:44 4.9 °C -1.8 °C 1012.8 hPa WNW 14.2 km/h 35.4 km/h 61.3% 0 mm 0 W/m2
16:49 4.9 °C -1.9 °C 1012.8 hPa NW 11.1 km/h 35.4 km/h 61.1% 0 mm 0 W/m2
16:54 4.8 °C -1.9 °C 1012.8 hPa NNW 4.2 km/h 35.4 km/h 61.9% 0 mm 0 W/m2
16:59 4.7 °C -1.9 °C 1012.8 hPa NW 2.3 km/h 35.4 km/h 62% 0 mm 0 W/m2
17:04 4.7 °C -2 °C 1013.1 hPa NW 6.8 km/h 35.4 km/h 62% 0 mm 0 W/m2
17:09 4.6 °C -2 °C 1013.1 hPa NW 3.5 km/h 24.1 km/h 62.3% 0 mm 0 W/m2
17:14 4.4 °C -2 °C 1013.1 hPa NNW 5.6 km/h 24.1 km/h 62.8% 0 mm 0 W/m2
17:19 4.4 °C -2.1 °C 1013.1 hPa NW 3.2 km/h 24.1 km/h 63% 0 mm 0 W/m2
17:24 4.3 °C -2.1 °C 1013.1 hPa NW 1.1 km/h 24.1 km/h 63.2% 0 mm 0 W/m2
17:29 4.2 °C -2.1 °C 1013.1 hPa NW 1.9 km/h 24.1 km/h 63.2% 0 mm 0 W/m2
17:34 4.2 °C -2.1 °C 1013.1 hPa NW 1.1 km/h 24.1 km/h 63.8% 0 mm 0 W/m2
17:39 4.1 °C -2.1 °C 1013.1 hPa WNW 1.6 km/h 9.7 km/h 64% 0 mm 0 W/m2
17:44 4.1 °C -2.2 °C 1013.1 hPa NW 2.6 km/h 11.3 km/h 64% 0 mm 0 W/m2
17:49 4 °C -2.2 °C 1013.4 hPa NW 1.3 km/h 11.3 km/h 64.2% 0 mm 0 W/m2
17:54 3.9 °C -2.1 °C 1013.4 hPa NW 0.3 km/h 11.3 km/h 64.9% 0 mm 0 W/m2
17:59 3.9 °C -2.1 °C 1013.4 hPa Calm   11.3 km/h 65% 0 mm 0 W/m2
18:04 3.8 °C -2.2 °C 1013.4 hPa NW 1.6 km/h 11.3 km/h 65% 0 mm 0 W/m2
18:09 3.8 °C -2.2 °C 1013.4 hPa NNW 1 km/h 11.3 km/h 65% 0 mm 0 W/m2
18:14 3.8 °C -2.2 °C 1013.4 hPa NW 3.2 km/h 19.3 km/h 65% 0 mm 0 W/m2
18:19 3.8 °C -2.1 °C 1013.4 hPa NW 1 km/h 19.3 km/h 65.6% 0 mm 0 W/m2
18:24 3.8 °C -2 °C 1013.4 hPa NW 0.3 km/h 19.3 km/h 66% 0 mm 0 W/m2
18:29 3.8 °C -2 °C 1013.4 hPa NW 0.2 km/h 19.3 km/h 66% 0 mm 0 W/m2
18:34 3.7 °C -2 °C 1013.4 hPa NW 1.6 km/h 19.3 km/h 66% 0 mm 0 W/m2
18:39 3.7 °C -1.9 °C 1013.4 hPa NW 0.3 km/h 6.4 km/h 66.7% 0 mm 0 W/m2
18:44 3.7 °C -2.1 °C 1013.4 hPa Calm   6.4 km/h 66% 0 mm 0 W/m2
18:49 3.7 °C -2.1 °C 1013.4 hPa Calm   6.4 km/h 66% 0 mm 0 W/m2
18:54 3.6 °C -2.1 °C 1013.8 hPa Calm   6.4 km/h 66% 0 mm 0 W/m2
18:59 3.6 °C -2.2 °C 1013.8 hPa NW 0.2 km/h 6.4 km/h 66.1% 0 mm 0 W/m2
19:04 3.4 °C -2.1 °C 1013.8 hPa NW 0.2 km/h 6.4 km/h 67% 0 mm 0 W/m2
19:09 3.4 °C -2.1 °C 1013.8 hPa Calm   1.6 km/h 67% 0 mm 0 W/m2
19:14 3.3 °C -2.2 °C 1013.8 hPa Calm   1.6 km/h 67.2% 0 mm 0 W/m2
19:19 3.3 °C -2.1 °C 1014.1 hPa Calm   1.6 km/h 68% 0 mm 0 W/m2
19:24 3.3 °C -2.1 °C 1014.1 hPa NW 1.1 km/h 6.4 km/h 68% 0 mm 0 W/m2
19:29 3.3 °C -1.9 °C 1014.1 hPa NW 2.3 km/h 9.7 km/h 68.8% 0 mm 0 W/m2
19:34 3.3 °C -1.8 °C 1014.1 hPa NNW 1.6 km/h 9.7 km/h 69% 0 mm 0 W/m2
19:39 3.4 °C -1.8 °C 1014.1 hPa NW 1 km/h 9.7 km/h 69% 0 mm 0 W/m2
19:44 3.4 °C -1.8 °C 1014.1 hPa NW 2.4 km/h 9.7 km/h 69% 0 mm 0 W/m2
19:49 3.4 °C -1.8 °C 1014.1 hPa NNW 1.3 km/h 9.7 km/h 69% 0 mm 0 W/m2
19:54 3.3 °C -1.8 °C 1014.4 hPa NW 2.1 km/h 16.1 km/h 69% 0 mm 0 W/m2
19:59 3.3 °C -1.7 °C 1014.1 hPa NW 1.9 km/h 16.1 km/h 69.6% 0 mm 0 W/m2
20:04 3.3 °C -1.6 °C 1014.1 hPa NNW 1.6 km/h 1.6 km/h 70% 0 mm 0 W/m2
20:09 3.3 °C -1.6 °C 1014.1 hPa NNW 1.6 km/h 9.7 km/h 70% 0 mm 0 W/m2
20:14 3.3 °C -1.6 °C 1014.1 hPa NW 4.5 km/h 11.3 km/h 70% 0 mm 0 W/m2
20:19 3.3 °C -1.6 °C 1014.1 hPa NW 4.3 km/h 16.1 km/h 70% 0 mm 0 W/m2
20:24 3.4 °C -1.5 °C 1014.1 hPa NNW 2.4 km/h 16.1 km/h 70% 0 mm 0 W/m2
20:29 3.5 °C -1.4 °C 1014.4 hPa NNW 1.4 km/h 16.1 km/h 70% 0 mm 0 W/m2
20:34 3.6 °C -1.6 °C 1014.4 hPa NW 6.3 km/h 20.9 km/h 69.4% 0 mm 0 W/m2
20:39 3.6 °C -1.4 °C 1014.4 hPa NW 3.2 km/h 20.9 km/h 69.6% 0 mm 0 W/m2
20:44 3.7 °C -1.4 °C 1014.4 hPa NNW 3.4 km/h 20.9 km/h 69.5% 0 mm 0 W/m2
20:49 3.7 °C -1.4 °C 1014.4 hPa NNW 2.6 km/h 20.9 km/h 69% 0 mm 0 W/m2
20:54 3.7 °C -1.4 °C 1014.4 hPa NW 3.5 km/h 20.9 km/h 69% 0 mm 0 W/m2
20:59 3.7 °C -1.4 °C 1014.8 hPa NW 2.7 km/h 20.9 km/h 69% 0 mm 0 W/m2
21:04 3.7 °C -1.4 °C 1014.8 hPa NW 5.8 km/h 20.9 km/h 68.9% 0 mm 0 W/m2
21:09 3.8 °C -1.6 °C 1014.8 hPa NW 2.4 km/h 17.7 km/h 68.1% 0 mm 0 W/m2
21:14 3.8 °C -1.4 °C 1014.8 hPa NW 1.8 km/h 17.7 km/h 68.9% 0 mm 0 W/m2
21:19 3.8 °C -1.6 °C 1014.8 hPa NW 3.2 km/h 17.7 km/h 68% 0 mm 0 W/m2
21:24 3.8 °C -1.6 °C 1014.8 hPa NW 8.4 km/h 22.5 km/h 68% 0 mm 0 W/m2
21:29 3.8 °C -1.6 °C 1015.1 hPa NW 4.5 km/h 22.5 km/h 68% 0 mm 0 W/m2
21:34 3.9 °C -1.6 °C 1015.1 hPa NW 6.8 km/h 22.5 km/h 67.7% 0 mm 0 W/m2
21:39 3.9 °C -1.6 °C 1015.1 hPa NW 6.6 km/h 22.5 km/h 67.2% 0 mm 0 W/m2
21:44 3.9 °C -1.7 °C 1015.1 hPa NW 6.8 km/h 22.5 km/h 66.6% 0 mm 0 W/m2
21:49 3.9 °C -1.9 °C 1015.5 hPa NW 9.2 km/h 37 km/h 65.8% 0 mm 0 W/m2
21:54 3.9 °C -2.1 °C 1015.5 hPa NW 8.5 km/h 37 km/h 65% 0 mm 0 W/m2
21:59 3.9 °C -2.1 °C 1015.5 hPa NW 7.2 km/h 37 km/h 65% 0 mm 0 W/m2
22:04 3.9 °C -2.1 °C 1015.5 hPa NW 12.7 km/h 37 km/h 64.5% 0 mm 0 W/m2
22:09 3.9 °C -2.2 °C 1015.5 hPa NW 12.6 km/h 30.6 km/h 64% 0 mm 0 W/m2
22:14 3.9 °C -2.4 °C 1015.5 hPa NW 8.4 km/h 30.6 km/h 63% 0 mm 0 W/m2
22:19 3.9 °C -2.4 °C 1015.5 hPa NW 8.7 km/h 30.6 km/h 63% 0 mm 0 W/m2
22:24 3.9 °C -2.4 °C 1015.5 hPa NNW 5.8 km/h 30.6 km/h 63.1% 0 mm 0 W/m2
22:29 3.9 °C -2.4 °C 1015.5 hPa NW 10.5 km/h 30.6 km/h 63.1% 0 mm 0 W/m2
22:34 3.9 °C -2.5 °C 1015.5 hPa NW 11.3 km/h 30.6 km/h 63% 0 mm 0 W/m2
22:39 3.9 °C -2.6 °C 1015.5 hPa NW 10 km/h 30.6 km/h 62.5% 0 mm 0 W/m2
22:44 3.8 °C -2.7 °C 1015.8 hPa NW 10.8 km/h 32.2 km/h 62.4% 0 mm 0 W/m2
22:49 3.8 °C -2.7 °C 1015.8 hPa NW 6.4 km/h 32.2 km/h 62.4% 0 mm 0 W/m2
22:54 3.8 °C -2.6 °C 1015.8 hPa NW 5 km/h 32.2 km/h 63% 0 mm 0 W/m2
22:59 3.8 °C -2.6 °C 1015.8 hPa NW 6.8 km/h 32.2 km/h 63% 0 mm 0 W/m2
23:00 3.8 °C -2.6 °C 1015.8 hPa WNW 3.2 km/h 32.2 km/h 63% 0 mm 0 W/m2
23:09 3.7 °C -2.7 °C 1015.8 hPa NW 5.8 km/h 20.9 km/h 63% 0 mm 0 W/m2
23:14 3.7 °C -2.6 °C 1015.8 hPa NW 11.6 km/h 29 km/h 63.3% 0 mm 0 W/m2
23:19 3.7 °C -2.7 °C 1015.8 hPa NW 8.4 km/h 29 km/h 63% 0 mm 0 W/m2
23:24 3.7 °C -2.7 °C 1015.8 hPa NW 4 km/h 29 km/h 63% 0 mm 0 W/m2
23:29 3.6 °C -2.7 °C 1015.8 hPa NW 4.8 km/h 29 km/h 63.1% 0 mm 0 W/m2
23:34 3.6 °C -2.8 °C 1015.8 hPa NNW 4.8 km/h 29 km/h 63.1% 0 mm 0 W/m2
23:39 3.6 °C -2.8 °C 1015.8 hPa NW 5.8 km/h 19.3 km/h 63% 0 mm 0 W/m2
23:44 3.6 °C -2.7 °C 1015.8 hPa NW 5.6 km/h 22.5 km/h 63.5% 0 mm 0 W/m2
23:49 3.6 °C -2.8 °C 1015.8 hPa NW 6.8 km/h 22.5 km/h 63% 0 mm 0 W/m2
23:53 3.6 °C -2.8 °C 1015.8 hPa NW 3.7 km/h 22.5 km/h 63% 0 mm 0 W/m2
Hartford County Weather
Compliments of Weather Underground - 2 mb